createdAt,value
2023-04-08T00:00:22.702Z,9.27
2023-04-08T00:05:25.924Z,10.03
2023-04-08T00:10:30.211Z,10.50
2023-04-08T00:15:33.158Z,10.50
2023-04-08T00:20:36.290Z,10.23
2023-04-08T00:25:40.845Z,9.10
2023-04-08T00:30:43.837Z,7.97
2023-04-08T00:35:47.334Z,8.50
2023-04-08T00:40:51.674Z,8.90
2023-04-08T00:45:54.725Z,8.43
2023-04-08T00:50:57.663Z,8.10
2023-04-08T00:56:02.001Z,9.03
2023-04-08T01:01:11.571Z,9.10
2023-04-08T01:06:22.862Z,10.30
2023-04-08T01:11:31.060Z,8.90
2023-04-08T01:16:35.961Z,7.87
2023-04-08T01:21:39.714Z,9.20
2023-04-08T01:26:44.809Z,8.00
2023-04-08T01:31:49.198Z,9.40
2023-04-08T01:36:53.717Z,7.97
2023-04-08T01:41:59.198Z,8.93
2023-04-08T01:47:03.887Z,8.33
2023-04-08T01:52:10.362Z,9.20
2023-04-08T01:57:20.626Z,8.50
2023-04-08T02:02:26.639Z,8.57
2023-04-08T02:07:29.745Z,8.33
2023-04-08T02:12:34.645Z,7.87
2023-04-08T02:17:45.089Z,8.10
2023-04-08T02:22:51.708Z,7.57
2023-04-08T02:27:57.566Z,8.10
2023-04-08T02:33:04.897Z,14.43
2023-04-08T02:38:08.321Z,8.00
2023-04-08T02:43:12.626Z,7.13
2023-04-08T02:48:16.228Z,7.20
2023-04-08T02:53:19.161Z,6.50
2023-04-08T02:58:23.477Z,5.63
2023-04-08T03:03:29.711Z,5.97
2023-04-08T03:08:33.737Z,6.07
2023-04-08T03:13:38.297Z,5.40
2023-04-08T03:18:41.358Z,5.43
2023-04-08T03:23:44.314Z,5.80
2023-04-08T03:28:48.925Z,5.20
2023-04-08T03:33:52.156Z,4.90
2023-04-08T03:38:55.115Z,4.60
2023-04-08T03:43:59.437Z,4.60
2023-04-08T03:49:02.337Z,4.30
2023-04-08T03:54:05.554Z,4.70
2023-04-08T03:59:09.854Z,3.47
2023-04-08T04:04:13.088Z,3.53
2023-04-08T04:09:16.837Z,3.57
2023-04-08T04:14:21.135Z,3.90
2023-04-08T04:19:23.994Z,4.33
2023-04-08T04:24:26.886Z,4.00
2023-04-08T04:29:32.440Z,4.17
2023-04-08T04:34:35.340Z,4.30
2023-04-08T04:39:38.262Z,3.90
2023-04-08T04:44:42.561Z,6.10
2023-04-08T04:49:45.696Z,4.40
2023-04-08T04:54:48.591Z,6.37
2023-04-08T04:59:52.943Z,5.40
2023-04-08T05:04:56.102Z,5.93
2023-04-08T05:09:59.032Z,6.10
2023-04-08T05:15:03.301Z,6.43
2023-04-08T05:20:07.264Z,6.13
2023-04-08T05:25:11.114Z,6.20
2023-04-08T05:30:16.295Z,6.13
2023-04-08T05:35:19.175Z,6.70
2023-04-08T05:40:22.072Z,6.27
2023-04-08T05:45:26.384Z,5.70
2023-04-08T05:50:29.393Z,5.47
2023-04-08T05:55:32.294Z,5.70
2023-04-08T06:00:36.572Z,6.33
2023-04-08T06:05:39.442Z,7.20
2023-04-08T06:10:42.401Z,7.17
2023-04-08T06:15:46.756Z,6.63
2023-04-08T06:20:49.588Z,7.20
2023-04-08T06:25:54.416Z,8.20
2023-04-08T06:30:58.808Z,8.90
2023-04-08T06:36:05.023Z,7.10
2023-04-08T06:41:08.967Z,7.27
2023-04-08T06:46:13.276Z,8.30
2023-04-08T06:51:16.203Z,9.20
2023-04-08T06:56:19.043Z,10.30
2023-04-08T07:01:24.051Z,10.73
2023-04-08T07:06:26.974Z,11.70
2023-04-08T07:11:29.871Z,12.13
2023-04-08T07:16:34.169Z,11.47
2023-04-08T07:21:37.064Z,12.80
2023-04-08T07:26:40.055Z,13.27
2023-04-08T07:31:45.500Z,12.50
2023-04-08T07:36:48.436Z,12.90
2023-04-08T07:41:51.343Z,13.43
2023-04-08T07:46:55.616Z,12.53
2023-04-08T07:51:58.610Z,12.67
2023-04-08T07:57:02.603Z,12.67
2023-04-08T08:02:07.817Z,11.57
2023-04-08T08:07:11.097Z,11.53
2023-04-08T08:12:13.999Z,23.00
2023-04-08T08:17:18.215Z,11.00
2023-04-08T08:22:21.220Z,10.20
2023-04-08T08:27:24.222Z,9.73
2023-04-08T08:32:28.542Z,12.00
2023-04-08T08:37:31.522Z,10.67
2023-04-08T08:42:34.599Z,11.23
2023-04-08T08:47:38.931Z,9.80
2023-04-08T08:52:49.606Z,10.50
2023-04-08T08:57:52.663Z,9.70
2023-04-08T09:02:57.208Z,9.57
2023-04-08T09:08:00.468Z,9.17
2023-04-08T09:13:03.603Z,15.70
2023-04-08T09:18:23.273Z,15.07
2023-04-08T09:23:26.591Z,25.77
2023-04-08T09:28:29.650Z,17.63
2023-04-08T09:33:34.131Z,28.13
2023-04-08T09:38:37.066Z,31.20
2023-04-08T09:43:49.079Z,11.40
2023-04-08T09:49:07.484Z,14.40
2023-04-08T09:54:15.761Z,8.53
2023-04-08T09:59:21.786Z,8.70
2023-04-08T10:04:29.943Z,10.00
2023-04-08T10:09:33.899Z,9.00
2023-04-08T10:14:36.818Z,15.83
2023-04-08T10:19:42.079Z,10.03
2023-04-08T10:25:25.602Z,10.20
2023-04-08T10:30:45.576Z,10.03
2023-04-08T10:35:53.898Z,11.13
2023-04-08T10:40:57.028Z,11.60
2023-04-08T10:46:00.651Z,11.27
2023-04-08T10:51:06.690Z,10.00
2023-04-08T10:56:13.490Z,9.00
2023-04-08T11:01:16.941Z,7.93
2023-04-08T11:06:21.697Z,8.70
2023-04-08T11:11:29.606Z,8.80
2023-04-08T11:16:33.954Z,9.57
2023-04-08T11:21:38.890Z,9.13
2023-04-08T11:26:43.759Z,8.30
2023-04-08T11:31:49.745Z,9.90
2023-04-08T11:36:54.879Z,9.13
2023-04-08T11:41:58.994Z,10.23
2023-04-08T11:47:02.721Z,13.03
2023-04-08T11:52:07.722Z,13.40
2023-04-08T11:57:11.808Z,14.67
2023-04-08T12:02:15.252Z,16.37
2023-04-08T12:07:19.748Z,14.93
2023-04-08T12:12:23.377Z,17.73
2023-04-08T12:17:26.613Z,15.83
2023-04-08T12:22:31.283Z,17.13
2023-04-08T12:27:34.550Z,15.37
2023-04-08T12:32:37.616Z,14.50
2023-04-08T12:37:41.999Z,14.20
2023-04-08T12:42:45.003Z,14.63
2023-04-08T12:47:47.974Z,16.00
2023-04-08T12:52:52.344Z,17.53
2023-04-08T12:57:55.292Z,17.63
2023-04-08T13:02:58.692Z,17.07
2023-04-08T13:08:03.314Z,16.00
2023-04-08T13:13:06.659Z,18.13
2023-04-08T13:18:09.842Z,18.67
2023-04-08T13:23:15.292Z,17.13
2023-04-08T13:28:18.307Z,16.80
2023-04-08T13:33:22.173Z,16.50
2023-04-08T13:38:26.528Z,16.10
2023-04-08T13:43:29.581Z,18.10
2023-04-08T13:48:32.762Z,16.60
2023-04-08T13:53:37.425Z,14.50
2023-04-08T13:58:40.585Z,15.17
2023-04-08T14:03:44.317Z,14.50
2023-04-08T14:08:49.080Z,13.80
2023-04-08T14:13:52.160Z,13.50
2023-04-08T14:18:55.256Z,13.07
2023-04-08T14:24:02.431Z,12.37
2023-04-08T14:29:07.110Z,13.63
2023-04-08T14:34:10.878Z,14.90
2023-04-08T14:39:16.574Z,14.80
2023-04-08T14:44:23.860Z,13.90
2023-04-08T14:49:27.914Z,13.20
2023-04-08T14:54:32.463Z,16.67
2023-04-08T14:59:35.474Z,16.10
2023-04-08T15:04:38.356Z,14.47
2023-04-08T15:09:42.652Z,13.70
2023-04-08T15:14:45.744Z,13.80
2023-04-08T15:19:49.194Z,13.73
2023-04-08T15:24:53.716Z,13.80
2023-04-08T15:29:56.629Z,12.83
2023-04-08T15:34:59.541Z,11.93
2023-04-08T15:40:03.896Z,12.40
2023-04-08T15:45:07.920Z,12.80
2023-04-08T15:50:11.888Z,12.13
2023-04-08T15:55:16.272Z,13.20
2023-04-08T16:00:19.279Z,15.93
2023-04-08T16:05:22.241Z,12.40
2023-04-08T16:10:27.047Z,13.90
2023-04-08T16:15:30.005Z,14.90
2023-04-08T16:20:33.232Z,15.70
2023-04-08T16:25:37.514Z,17.70
2023-04-08T16:30:43.517Z,16.60
2023-04-08T16:35:49.293Z,16.10
2023-04-08T16:40:54.449Z,18.50
2023-04-08T16:45:57.412Z,16.07
2023-04-08T16:51:00.342Z,16.50
2023-04-08T16:56:04.682Z,13.23
2023-04-08T17:01:08.559Z,19.90
2023-04-08T17:06:13.585Z,17.77
2023-04-08T17:11:17.959Z,17.60
2023-04-08T17:16:21.151Z,16.77
2023-04-08T17:21:24.096Z,17.63
2023-04-08T17:26:28.397Z,21.63
2023-04-08T17:31:31.364Z,16.93
2023-04-08T17:36:34.331Z,15.53
2023-04-08T17:41:40.913Z,18.97
2023-04-08T17:46:44.242Z,16.23
2023-04-08T17:51:47.111Z,16.17
2023-04-08T17:56:51.444Z,18.50
2023-04-08T18:01:54.545Z,19.97
2023-04-08T18:06:57.677Z,31.17
2023-04-08T18:12:01.947Z,21.17
2023-04-08T18:17:04.950Z,20.70
2023-04-08T18:22:08.000Z,23.53
2023-04-08T18:27:12.724Z,17.37
2023-04-08T18:32:15.686Z,18.10
2023-04-08T18:37:20.099Z,19.90
2023-04-08T18:42:24.375Z,24.70
2023-04-08T18:47:27.546Z,21.57
2023-04-08T18:52:32.129Z,26.57
2023-04-08T18:57:36.423Z,20.67
2023-04-08T19:02:39.408Z,20.47
2023-04-08T19:07:42.321Z,18.73
2023-04-08T19:12:46.650Z,19.60
2023-04-08T19:17:49.681Z,17.73
2023-04-08T19:22:52.607Z,18.03
2023-04-08T19:27:56.944Z,18.27
2023-04-08T19:32:59.896Z,19.50
2023-04-08T19:38:02.831Z,19.60
2023-04-08T19:43:07.096Z,18.73
2023-04-08T19:48:10.030Z,18.37
2023-04-08T19:53:13.054Z,17.67
2023-04-08T19:58:17.718Z,19.43
2023-04-08T20:03:20.922Z,19.07
2023-04-08T20:08:24.188Z,17.77
2023-04-08T20:13:28.650Z,25.20
2023-04-08T20:18:32.238Z,18.63
2023-04-08T20:23:36.243Z,18.07
2023-04-08T20:28:41.367Z,18.47
2023-04-08T20:33:45.421Z,23.03
2023-04-08T20:38:48.369Z,24.23
2023-04-08T20:43:53.456Z,26.87
2023-04-08T20:48:56.357Z,19.00
2023-04-08T20:53:59.297Z,18.30
2023-04-08T20:59:03.580Z,19.20
2023-04-08T21:04:06.818Z,20.73
2023-04-08T21:09:11.305Z,17.93
2023-04-08T21:14:15.577Z,17.57
2023-04-08T21:19:18.499Z,22.47
2023-04-08T21:24:21.540Z,18.83
2023-04-08T21:29:25.918Z,19.10
2023-04-08T21:34:28.818Z,20.13
2023-04-08T21:39:31.736Z,20.80
2023-04-08T21:44:36.469Z,20.50
2023-04-08T21:49:39.378Z,19.40
2023-04-08T21:54:42.299Z,19.97
2023-04-08T21:59:46.622Z,20.77
2023-04-08T22:04:49.814Z,19.87
2023-04-08T22:09:54.474Z,20.40
2023-04-08T22:14:58.741Z,20.90
2023-04-08T22:20:01.608Z,22.60
2023-04-08T22:25:04.796Z,20.43
2023-04-08T22:30:10.407Z,22.70
2023-04-08T22:35:13.256Z,20.23
2023-04-08T22:40:16.219Z,19.47
2023-04-08T22:45:20.694Z,19.20
2023-04-08T22:50:23.827Z,22.83
2023-04-08T22:55:26.736Z,20.83
2023-04-08T23:00:31.681Z,20.27
2023-04-08T23:05:35.365Z,21.33
2023-04-08T23:10:38.406Z,22.80
2023-04-08T23:15:42.764Z,23.33
2023-04-08T23:20:51.884Z,26.20
2023-04-08T23:25:55.851Z,24.73
2023-04-08T23:31:00.418Z,24.23
2023-04-08T23:36:08.217Z,26.17
2023-04-08T23:41:11.232Z,24.87
2023-04-08T23:46:15.834Z,22.37
2023-04-08T23:51:18.788Z,20.50
2023-04-08T23:56:21.693Z,20.20
